createdAt,value
2023-05-04T00:00:56.530Z,7.70
2023-05-04T00:06:06.692Z,16.20
2023-05-04T00:11:17.761Z,9.30
2023-05-04T00:16:27.595Z,9.80
2023-05-04T00:21:37.539Z,9.40
2023-05-04T00:26:47.758Z,11.80
2023-05-04T00:31:57.369Z,10.60
2023-05-04T00:37:08.218Z,8.60
2023-05-04T00:42:18.771Z,9.10
2023-05-04T00:47:30.165Z,11.50
2023-05-04T00:52:41.614Z,11.40
2023-05-04T00:57:52.216Z,10.00
2023-05-04T01:03:02.008Z,10.60
2023-05-04T01:08:20.078Z,10.30
2023-05-04T01:13:34.231Z,9.10
2023-05-04T01:18:44.125Z,10.00
2023-05-04T01:23:53.805Z,10.70
2023-05-04T01:29:10.688Z,9.30
2023-05-04T01:34:22.071Z,11.50
2023-05-04T01:39:31.792Z,11.50
2023-05-04T01:44:41.840Z,10.80
2023-05-04T01:49:51.884Z,12.10
2023-05-04T01:55:01.825Z,11.90
2023-05-04T02:00:14.521Z,10.60
2023-05-04T02:05:24.147Z,9.80
2023-05-04T02:10:34.086Z,9.00
2023-05-04T02:15:43.815Z,7.50
2023-05-04T02:20:53.544Z,8.20
2023-05-04T02:26:03.284Z,10.30
2023-05-04T02:31:13.118Z,7.80
2023-05-04T02:36:22.923Z,8.20
2023-05-04T02:41:32.873Z,6.40
2023-05-04T02:46:42.760Z,7.50
2023-05-04T02:51:52.642Z,7.10
2023-05-04T02:57:02.668Z,7.60
2023-05-04T03:02:12.968Z,7.70
2023-05-04T03:07:22.718Z,12.70
2023-05-04T03:12:32.423Z,7.50
2023-05-04T03:17:42.346Z,7.40
2023-05-04T03:22:52.039Z,6.80
2023-05-04T03:28:02.199Z,8.60
2023-05-04T03:33:12.677Z,5.80
2023-05-04T03:38:22.754Z,6.70
2023-05-04T03:43:32.596Z,8.70
2023-05-04T03:48:42.514Z,8.10
2023-05-04T03:53:52.750Z,8.00
2023-05-04T03:59:03.336Z,10.50
2023-05-04T04:04:13.143Z,9.50
2023-05-04T04:09:22.934Z,8.00
2023-05-04T04:14:32.876Z,8.20
2023-05-04T04:19:42.867Z,6.70
2023-05-04T04:24:52.592Z,7.30
2023-05-04T04:30:02.429Z,7.40
2023-05-04T04:35:14.404Z,9.40
2023-05-04T04:40:24.221Z,7.80
2023-05-04T04:45:34.350Z,6.90
2023-05-04T04:50:45.586Z,6.70
2023-05-04T04:55:55.626Z,7.40
2023-05-04T05:01:06.558Z,9.50
2023-05-04T05:06:17.046Z,7.30
2023-05-04T05:11:26.990Z,6.90
2023-05-04T05:16:36.739Z,7.20
2023-05-04T05:21:46.816Z,8.40
2023-05-04T05:26:56.664Z,8.60
2023-05-04T05:32:06.923Z,6.90
2023-05-04T05:37:16.827Z,8.50
2023-05-04T05:42:26.545Z,12.50
2023-05-04T05:47:37.135Z,10.10
2023-05-04T05:52:47.271Z,8.00
2023-05-04T05:57:57.295Z,9.10
2023-05-04T06:03:08.098Z,8.40
2023-05-04T06:08:18.776Z,6.30
2023-05-04T06:13:28.881Z,5.80
2023-05-04T06:18:38.668Z,6.60
2023-05-04T06:23:49.372Z,7.00
2023-05-04T06:28:59.289Z,6.60
2023-05-04T06:34:09.336Z,5.50
2023-05-04T06:39:19.701Z,5.80
2023-05-04T06:44:29.524Z,8.50
2023-05-04T06:49:40.068Z,6.50
2023-05-04T06:54:49.975Z,7.70
2023-05-04T06:59:59.784Z,5.70
2023-05-04T07:05:11.427Z,7.30
2023-05-04T07:10:22.296Z,6.00
2023-05-04T07:15:34.407Z,6.10
2023-05-04T07:20:45.491Z,6.20
2023-05-04T07:25:55.286Z,6.00
2023-05-04T07:31:05.952Z,6.90
2023-05-04T07:36:16.135Z,7.20
2023-05-04T07:41:26.654Z,10.60
2023-05-04T07:46:36.769Z,11.30
2023-05-04T07:51:46.843Z,8.60
2023-05-04T07:56:56.764Z,7.60
2023-05-04T08:02:08.227Z,5.70
2023-05-04T08:07:19.539Z,7.00
2023-05-04T08:12:29.475Z,5.90
2023-05-04T08:17:41.039Z,7.70
2023-05-04T08:22:51.035Z,5.90
2023-05-04T08:28:00.870Z,4.70
2023-05-04T08:33:10.986Z,8.60
2023-05-04T08:38:21.151Z,5.60
2023-05-04T08:43:35.798Z,7.80
2023-05-04T08:48:46.682Z,5.50
2023-05-04T08:53:58.032Z,5.40
2023-05-04T08:59:10.338Z,5.20
2023-05-04T09:04:22.619Z,5.70
2023-05-04T09:09:33.561Z,6.80
2023-05-04T09:14:44.020Z,5.40
2023-05-04T09:20:03.454Z,6.10
2023-05-04T09:25:17.974Z,5.10
2023-05-04T09:30:28.270Z,5.90
2023-05-04T09:35:43.280Z,5.90
2023-05-04T09:40:53.435Z,5.80
2023-05-04T09:46:03.526Z,9.10
2023-05-04T09:51:16.452Z,5.00
2023-05-04T09:56:43.632Z,6.20
2023-05-04T10:01:54.394Z,5.60
2023-05-04T10:07:06.714Z,7.20
2023-05-04T10:12:17.055Z,6.50
2023-05-04T10:18:00.730Z,5.90
2023-05-04T10:23:46.154Z,7.10
2023-05-04T10:29:13.762Z,4.80
2023-05-04T10:34:31.978Z,4.50
2023-05-04T10:39:42.480Z,4.50
2023-05-04T10:44:59.302Z,6.80
2023-05-04T10:50:14.876Z,6.80
2023-05-04T10:55:26.338Z,7.80
2023-05-04T11:00:44.994Z,8.00
2023-05-04T11:05:56.099Z,5.60
2023-05-04T11:11:11.483Z,4.90
2023-05-04T11:16:28.837Z,5.20
2023-05-04T11:21:38.585Z,5.90
2023-05-04T11:26:54.686Z,5.20
2023-05-04T11:32:04.473Z,7.10
2023-05-04T11:37:14.470Z,7.60
2023-05-04T11:42:24.807Z,5.50
2023-05-04T11:47:34.886Z,5.70
2023-05-04T11:52:45.349Z,6.30
2023-05-04T11:58:02.540Z,6.60
2023-05-04T12:03:15.056Z,5.30
2023-05-04T12:08:35.168Z,5.70
2023-05-04T12:13:47.712Z,7.00
2023-05-04T12:19:07.814Z,4.80
2023-05-04T12:24:17.763Z,6.00
2023-05-04T12:29:27.419Z,6.20
2023-05-04T12:34:38.549Z,6.40
2023-05-04T12:39:49.391Z,5.90
2023-05-04T12:44:59.127Z,6.10
2023-05-04T12:50:11.701Z,4.80
2023-05-04T12:55:24.660Z,8.70
2023-05-04T13:00:36.516Z,8.30
2023-05-04T13:05:46.804Z,5.80
2023-05-04T13:10:56.446Z,8.10
2023-05-04T13:16:06.622Z,6.60
2023-05-04T13:21:17.895Z,7.20
2023-05-04T13:26:27.660Z,7.50
2023-05-04T13:31:37.593Z,8.30
2023-05-04T13:36:48.253Z,7.20
2023-05-04T13:41:57.897Z,6.00
2023-05-04T13:47:07.890Z,5.70
2023-05-04T13:52:17.599Z,5.50
2023-05-04T13:57:28.906Z,6.30
2023-05-04T14:02:38.948Z,6.70
2023-05-04T14:07:48.701Z,6.10
2023-05-04T14:12:58.716Z,7.70
2023-05-04T14:18:09.199Z,6.70
2023-05-04T14:23:18.842Z,4.80
2023-05-04T14:28:28.577Z,6.70
2023-05-04T14:33:38.435Z,6.40
2023-05-04T14:38:49.065Z,7.90
2023-05-04T14:43:58.805Z,5.10
2023-05-04T14:49:08.936Z,7.40
2023-05-04T14:54:18.981Z,7.50
2023-05-04T14:59:29.058Z,6.40
2023-05-04T15:04:39.059Z,6.70
2023-05-04T15:09:48.632Z,8.50
2023-05-04T15:14:58.387Z,6.50
2023-05-04T15:20:10.119Z,7.00
2023-05-04T15:25:23.715Z,6.50
2023-05-04T15:30:33.439Z,4.30
2023-05-04T15:35:43.610Z,13.60
2023-05-04T15:40:53.781Z,5.70
2023-05-04T15:46:03.384Z,6.80
2023-05-04T15:51:15.778Z,5.90
2023-05-04T15:56:25.415Z,7.20
2023-05-04T16:01:35.220Z,6.60
2023-05-04T16:06:44.987Z,6.40
2023-05-04T16:11:54.540Z,6.00
2023-05-04T16:17:04.948Z,7.80
2023-05-04T16:22:15.286Z,7.70
2023-05-04T16:27:27.236Z,6.20
2023-05-04T16:32:37.322Z,6.10
2023-05-04T16:37:47.087Z,5.20
2023-05-04T16:42:56.761Z,5.90
2023-05-04T16:48:07.165Z,5.10
2023-05-04T16:53:17.137Z,8.10
2023-05-04T16:58:27.164Z,7.40
2023-05-04T17:03:36.888Z,5.50
2023-05-04T17:08:46.663Z,6.20
2023-05-04T17:13:56.708Z,7.20
2023-05-04T17:19:08.181Z,4.90
2023-05-04T17:24:20.017Z,5.80
2023-05-04T17:29:29.696Z,5.10
2023-05-04T17:34:39.726Z,6.70
2023-05-04T17:39:49.530Z,4.40
2023-05-04T17:44:59.524Z,6.10
2023-05-04T17:50:10.772Z,6.30
2023-05-04T17:55:20.494Z,9.20
2023-05-04T18:00:30.788Z,6.30
2023-05-04T18:05:41.493Z,6.00
2023-05-04T18:10:51.101Z,4.70
2023-05-04T18:16:01.048Z,4.80
2023-05-04T18:21:11.410Z,5.20
2023-05-04T18:26:25.172Z,6.60
2023-05-04T18:31:34.972Z,6.30
2023-05-04T18:36:45.560Z,6.90
2023-05-04T18:41:56.476Z,21.60
2023-05-04T18:47:06.188Z,27.50
2023-05-04T18:52:15.924Z,41.30
2023-05-04T18:57:26.451Z,16.50
2023-05-04T19:02:38.139Z,32.70
2023-05-04T19:07:48.076Z,11.30
2023-05-04T19:12:58.148Z,14.90
2023-05-04T19:18:07.927Z,8.40
2023-05-04T19:23:17.915Z,9.70
2023-05-04T19:28:27.582Z,11.40
2023-05-04T19:33:47.996Z,10.90
2023-05-04T19:38:58.396Z,17.00
2023-05-04T19:44:10.441Z,10.10
2023-05-04T19:49:22.257Z,9.60
2023-05-04T19:54:32.308Z,13.10
2023-05-04T19:59:42.654Z,12.10
2023-05-04T20:04:54.147Z,7.50
2023-05-04T20:10:04.051Z,7.50
2023-05-04T20:15:14.283Z,7.20
2023-05-04T20:20:24.234Z,5.10
2023-05-04T20:25:33.952Z,5.90
2023-05-04T20:30:43.671Z,8.30
2023-05-04T20:35:53.339Z,9.90
2023-05-04T20:41:08.786Z,8.40
2023-05-04T20:46:18.573Z,7.00
2023-05-04T20:51:28.685Z,6.10
2023-05-04T20:56:38.313Z,8.40
2023-05-04T21:01:47.999Z,8.80
2023-05-04T21:06:58.224Z,7.10
2023-05-04T21:12:08.472Z,8.70
2023-05-04T21:17:18.154Z,15.90
2023-05-04T21:22:28.648Z,10.70
2023-05-04T21:27:38.303Z,5.70
2023-05-04T21:32:48.168Z,5.00
2023-05-04T21:37:57.953Z,6.80
2023-05-04T21:43:07.820Z,4.20
2023-05-04T21:48:17.516Z,6.00
2023-05-04T21:53:27.192Z,7.00
2023-05-04T21:58:37.443Z,5.20
2023-05-04T22:03:47.659Z,5.80
2023-05-04T22:08:57.636Z,4.60
2023-05-04T22:14:07.646Z,5.60
2023-05-04T22:19:17.385Z,3.90
2023-05-04T22:24:27.317Z,6.30
2023-05-04T22:29:38.945Z,5.50
2023-05-04T22:34:49.105Z,5.00
2023-05-04T22:40:00.603Z,5.30
2023-05-04T22:45:13.380Z,3.70
2023-05-04T22:50:23.215Z,6.60
2023-05-04T22:55:33.375Z,5.10
2023-05-04T23:00:43.475Z,4.10
2023-05-04T23:05:54.203Z,4.90
2023-05-04T23:11:03.947Z,3.10
2023-05-04T23:16:14.446Z,4.50
2023-05-04T23:21:24.301Z,5.30
2023-05-04T23:26:34.252Z,5.40
2023-05-04T23:31:43.894Z,5.30
2023-05-04T23:36:54.244Z,4.70
2023-05-04T23:42:04.032Z,4.70
2023-05-04T23:47:13.980Z,4.70
2023-05-04T23:52:23.787Z,7.50
2023-05-04T23:57:33.888Z,5.10
